• Join FlightAware (Why Join?)
  • Login
  • US Flag 
06:13AM EDT


 

Airport Tracker/Info


-or-


 

Live Flight TrackerFlight Track Log ✈ THY1078 ✈ 10-May-2013 ✈ LATI / TIA - LTBA / IST

Flight Track Log - Related Links

Times and Time Zones

All times are in EDT time to prevent confusion due to time zone crossing. See the THY1078 flight status page for this flight to view local times or setup timezone preferences in your user account.

Time Position Orientation Groundspeed Altitude Reporting Facility
EDT Latitude Longitude Course Direction KTS MPH feet Rate Location/Type
03:00PM 41.3566 22.5300 91° East  Level Estimated
03:01PM 41.3519 22.6703 93° East  Level Estimated
03:02PM 41.3470 22.8106 93° East  Level Estimated
03:03PM 41.3420 22.9509 93° East  Level Estimated
03:04PM 41.3368 23.0912 93° East  Level Estimated
03:05PM 41.3314 23.2314 93° East  Level Estimated
03:06PM 41.3259 23.3716 93° East  Level Estimated
03:07PM 41.3201 23.5118 93° East  Level Estimated
03:08PM 41.3143 23.6519 93° East  Level Estimated
03:09PM 41.3082 23.7920 93° East  Level Estimated
03:10PM 41.3020 23.9321 93° East  Level Estimated
03:11PM 41.2956 24.0722 93° East  Level Estimated
03:12PM 41.2890 24.2123 94° East  Level Estimated
03:13PM 41.2823 24.3523 94° East  Level Estimated
03:14PM 41.2753 24.4923 94° East  Level Estimated
03:15PM 41.2683 24.6322 94° East  Level Estimated
03:16PM 41.2610 24.7722 94° East  Level Estimated
03:17PM 41.2536 24.9121 94° East  Level Estimated
03:18PM 41.2460 25.0520 94° East  Level Estimated
03:19PM 41.2383 25.1918 94° East  Level Estimated
03:20PM 41.2303 25.3316 94° East  Level Estimated
03:21PM 41.2222 25.4713 94° East  Level Estimated
03:22PM 41.2140 25.6111 94° East  Level Estimated
03:23PM 41.2056 25.7508 95° East  Level Estimated
03:24PM 41.1969 25.8904 95° East  Level Estimated
03:25PM 41.1882 26.0300 95° East  Level Estimated
03:26PM 41.1792 26.1696 95° East  Level Estimated
03:27PM 41.1701 26.3092 95° East  Level Estimated
03:28PM 41.1609 26.4487 95° East  Level Estimated
03:29PM 41.1514 26.5881 95° East  Level Estimated
03:30PM 41.1418 26.7276 95° East  Level Estimated
03:31PM 41.1320 26.8669 95° East  Level Estimated
03:32PM 41.1221 27.0063 95° East  Level Estimated
03:33PM 41.1120 27.1456 95° East  Level Estimated
03:34PM 41.1017 27.2848 96° East  Level Estimated
03:35PM 41.0912 27.4240 96° East  Level Estimated
03:36PM 41.0806 27.5632 96° East  Level Estimated
03:37PM 41.0698 27.7023 96° East  Level Estimated
03:38PM 41.0589 27.8414 96° East  Level Estimated
03:39PM 41.0478 27.9804 96° East  Level Estimated
03:40PM 41.0365 28.1194 96° East  Level Estimated
03:41PM 41.0250 28.2584 96° East  Level Estimated
03:42PM 41.0134 28.3972 96° East  Level Estimated
03:43PM 41.0016 28.5361 96° East  Level Estimated
03:44PM 40.9897 28.6749 96° East  Level Estimated
03:45PM 40.9776 28.8136 97° East  Level Estimated
03:46PM 40.9769 28.8211 97° East  Level Estimated
03:47PM 40.9769 28.8211 21° North  Level Estimated
03:48PM 40.9769 28.8211 21° North  Level Estimated
03:49PM 40.9769 28.8211 21° North  Level Estimated
03:50PM 40.9769 28.8211 21° North  Level Estimated
03:51PM 40.9769 28.8211 21° North  Level Estimated
03:52PM 40.9769 28.8211 21° North  Level Estimated
03:53PM 40.9769 28.8211 21° North  Level Estimated
03:54PM 40.9769 28.8211 21° North  Level Estimated
03:55PM 40.9769 28.8211 21° North  Level Estimated
03:56PM 40.9769 28.8211 21° North  Level Estimated
03:57PM 40.9769 28.8211 21° North  Level Estimated
03:58PM 40.9769 28.8211 21° North  Level Estimated
03:59PM 40.9769 28.8211 21° North  Level Estimated
04:00PM 40.9769 28.8211 21° North  Level Estimated
04:01PM 40.9769 28.8211 21° North  Level Estimated